Olmeca — V7NB3 — position and weather

sailwx.info

Track history (hours):
 
Tides and Currents Weather Stations Pressure Air Temp Water Temp Dewpoint Dewpoint Depression Visibility Wind Speed Wind Dir Waves Ship Positions

Olmeca

Last reported at 2017-Sep-20 08:34 UTC. Time now 2017-Sep-21 03:40 UTC.
Position N 19°12' W 095°38'.

Length 129 m; draft 6 m.

Type: Ship. MMSI: 538002937.

Date/timePositionNaut miles runAvg speedWind from/ knotsBaromVisibWave heightAir tempDewpointWater temp
2017-Sep-20 08:34N 19°12' W 095°38'112.2
2017-Sep-20 08:30N 19°12' W 095°39'612.0
2017-Sep-20 08:00N 19°12' W 095°45'611.8
2017-Sep-20 07:30N 19°12' W 095°51'611.9
2017-Sep-20 07:00N 19°12' W 095°57'611.4
2017-Sep-20 06:30N 19°11' W 096°03'5 9.0
2017-Sep-20 06:00N 19°12' W 096°08'1 1.2
2017-Sep-20 05:31N 19°13' W 096°08'0 0.0
2017-Sep-20 05:00N 19°13' W 096°08'0 0.0
2017-Sep-20 04:30N 19°13' W 096°08'0 0.0
2017-Sep-20 04:01N 19°13' W 096°08'0 0.0
2017-Sep-20 03:30N 19°13' W 096°08'0 0.0
2017-Sep-20 03:01N 19°13' W 096°08'0 0.0
2017-Sep-20 02:31N 19°13' W 096°08'0 0.0
2017-Sep-20 02:00N 19°13' W 096°08'0 0.0
2017-Sep-20 01:24N 19°13' W 096°08'0 0.0
2017-Sep-20 01:00N 19°13' W 096°08'0 0.0
2017-Sep-20 00:18N 19°13' W 096°08'0 0.0
2017-Sep-20 00:00N 19°13' W 096°08'0 0.0
2017-Sep-19 23:30N 19°13' W 096°08'0 0.0
2017-Sep-19 23:00N 19°13' W 096°08'0 0.0
2017-Sep-19 22:30N 19°13' W 096°08'0 0.0
2017-Sep-19 22:00N 19°13' W 096°08'0 0.0
2017-Sep-19 21:30N 19°13' W 096°08'0 0.0
2017-Sep-19 21:00N 19°13' W 096°08'0 0.0
2017-Sep-19 20:30N 19°13' W 096°08'0 0.0
2017-Sep-19 19:52N 19°13' W 096°08'0 0.0
2017-Sep-19 19:24N 19°13' W 096°08'0 0.0
2017-Sep-19 19:00N 19°13' W 096°08'0 0.0
2017-Sep-19 18:30N 19°13' W 096°08'0 0.0
2017-Sep-19 17:49N 19°13' W 096°08'0 0.0
2017-Sep-19 17:31N 19°13' W 096°08'0 0.0
2017-Sep-19 16:54N 19°13' W 096°08'0 0.0
2017-Sep-19 16:30N 19°13' W 096°08'0 0.0
2017-Sep-19 16:01N 19°13' W 096°08'0 0.0
2017-Sep-19 15:31N 19°13' W 096°08'0 0.0
2017-Sep-19 15:00N 19°13' W 096°08'0 0.0
2017-Sep-19 14:31N 19°13' W 096°08'0 0.0
2017-Sep-19 13:52N 19°13' W 096°08'0 0.0
2017-Sep-19 13:24N 19°13' W 096°08'0 0.1
2017-Sep-19 13:01N 19°13' W 096°08'0 0.0
2017-Sep-19 12:30N 19°13' W 096°08'0 0.0
2017-Sep-19 12:01N 19°13' W 096°08'0 0.0
2017-Sep-19 11:30N 19°13' W 096°08'0 0.0
2017-Sep-19 10:55N 19°13' W 096°08'0 0.0
2017-Sep-19 10:30N 19°13' W 096°08'0 0.0
2017-Sep-19 10:00N 19°13' W 096°08'0 0.0
2017-Sep-19 09:30N 19°13' W 096°08'0 0.0
2017-Sep-19 09:01N 19°13' W 096°08'1 1.0
2017-Sep-19 08:31N 19°12' W 096°08'4 8.1
2017-Sep-19 08:00N 19°12' W 096°04'4 7.6
2017-Sep-19 07:31N 19°13' W 096°00'611.3
2017-Sep-19 07:00N 19°19' W 096°00'5 9.9
2017-Sep-19 06:30N 19°21' W 096°05'2 3.2
2017-Sep-19 06:00N 19°21' W 096°06'0 0.6
2017-Sep-19 05:30N 19°21' W 096°06'0 0.5
2017-Sep-19 05:00N 19°21' W 096°06'0 0.6
2017-Sep-19 04:30N 19°22' W 096°06'0 0.6
2017-Sep-19 04:00N 19°22' W 096°05'0 0.6
2017-Sep-19 03:30N 19°22' W 096°05'0 0.9
2017-Sep-19 03:00N 19°22' W 096°05'1 1.0
2017-Sep-19 02:28N 19°23' W 096°04'0 0.7
2017-Sep-19 02:00N 19°23' W 096°04'1 1.8
2017-Sep-19 01:30N 19°22' W 096°05'3 5.4
2017-Sep-19 01:00N 19°20' W 096°07'0 0.6
2017-Sep-19 00:30N 19°20' W 096°06'0 0.5
2017-Sep-19 00:00N 19°21' W 096°06'0 0.5
2017-Sep-18 23:30N 19°21' W 096°06'0 0.4
2017-Sep-18 23:00N 19°21' W 096°06'0 0.5
2017-Sep-18 22:30N 19°21' W 096°06'0 0.4
2017-Sep-18 22:00N 19°21' W 096°05'0 0.4
2017-Sep-18 21:30N 19°21' W 096°05'0 0.4
2017-Sep-18 21:00N 19°21' W 096°05'0 0.4
2017-Sep-18 20:30N 19°21' W 096°05'0 0.5
2017-Sep-18 20:00N 19°22' W 096°05'0 0.6
2017-Sep-18 19:30N 19°22' W 096°05'0 0.5
2017-Sep-18 19:00N 19°22' W 096°05'0 0.5
2017-Sep-18 18:30N 19°22' W 096°05'0 0.3
2017-Sep-18 18:00N 19°23' W 096°05'0 0.4
2017-Sep-18 17:30N 19°23' W 096°05'0 0.1
2017-Sep-18 17:00N 19°23' W 096°05'2 4.6
2017-Sep-18 16:30N 19°21' W 096°04'4 7.8
2017-Sep-18 16:00N 19°22' W 096°00'3 5.5
2017-Sep-18 15:30N 19°25' W 096°00'510.2
2017-Sep-18 15:00N 19°30' W 096°00'  
2017-Sep-13 11:14N 29°33' W 094°54'2 9.5
2017-Sep-13 11:00N 29°35' W 094°56'4 7.9
2017-Sep-13 10:30N 29°38' W 094°58'3 5.0
2017-Sep-13 10:00N 29°41' W 094°59'4 7.5
2017-Sep-13 09:30N 29°44' W 095°01'4 7.5
2017-Sep-13 09:00N 29°46' W 095°05'1 0.0
2017-Sep-12 15:22N 29°45' W 095°06'2 5.2
2017-Sep-12 15:00N 29°44' W 095°04'4 7.3
2017-Sep-12 14:30N 29°42' W 095°00'5 9.4
2017-Sep-12 14:00N 29°38' W 094°58'510.5
2017-Sep-12 13:30N 29°33' W 094°55'510.5
2017-Sep-12 13:00N 29°29' W 094°52'4 0.1
2017-Sep-10 21:03N 29°33' W 094°54'010.8
2017-Sep-10 21:00N 29°33' W 094°55'510.6
2017-Sep-10 20:30N 29°38' W 094°58'5 9.9
2017-Sep-10 20:00N 29°42' W 095°01'4 7.1
2017-Sep-10 19:30N 29°44' W 095°04'3 5.2
2017-Sep-10 19:00N 29°44' W 095°07'3 6.8
2017-Sep-10 18:30N 29°45' W 095°11'3 5.4
2017-Sep-10 18:00N 29°43' W 095°13'  
Track history (hours):
 
Tides and Currents Weather Stations Pressure Air Temp Water Temp Dewpoint Dewpoint Depression Visibility Wind Speed Wind Dir Waves Ship Positions

Olmeca

Last reported at 2017-Sep-20 08:34 UTC. Time now 2017-Sep-21 03:40 UTC.
Position N 19°12' W 095°38'.

Length 129 m; draft 6 m.

Type: Ship. MMSI: 538002937.

Date/timePositionNaut miles runAvg speedWind from/ knotsBaromVisibWave heightAir tempDewpointWater temp
2017-Sep-20 08:34N 19°12' W 095°38'112.2
2017-Sep-20 08:30N 19°12' W 095°39'612.0
2017-Sep-20 08:00N 19°12' W 095°45'611.8
2017-Sep-20 07:30N 19°12' W 095°51'611.9
2017-Sep-20 07:00N 19°12' W 095°57'611.4
2017-Sep-20 06:30N 19°11' W 096°03'5 9.0
2017-Sep-20 06:00N 19°12' W 096°08'1 1.2
2017-Sep-20 05:31N 19°13' W 096°08'0 0.0
2017-Sep-20 05:00N 19°13' W 096°08'0 0.0
2017-Sep-20 04:30N 19°13' W 096°08'0 0.0
2017-Sep-20 04:01N 19°13' W 096°08'0 0.0
2017-Sep-20 03:30N 19°13' W 096°08'0 0.0
2017-Sep-20 03:01N 19°13' W 096°08'0 0.0
2017-Sep-20 02:31N 19°13' W 096°08'0 0.0
2017-Sep-20 02:00N 19°13' W 096°08'0 0.0
2017-Sep-20 01:24N 19°13' W 096°08'0 0.0
2017-Sep-20 01:00N 19°13' W 096°08'0 0.0
2017-Sep-20 00:18N 19°13' W 096°08'0 0.0
2017-Sep-20 00:00N 19°13' W 096°08'0 0.0
2017-Sep-19 23:30N 19°13' W 096°08'0 0.0
2017-Sep-19 23:00N 19°13' W 096°08'0 0.0
2017-Sep-19 22:30N 19°13' W 096°08'0 0.0
2017-Sep-19 22:00N 19°13' W 096°08'0 0.0
2017-Sep-19 21:30N 19°13' W 096°08'0 0.0
2017-Sep-19 21:00N 19°13' W 096°08'0 0.0
2017-Sep-19 20:30N 19°13' W 096°08'0 0.0
2017-Sep-19 19:52N 19°13' W 096°08'0 0.0
2017-Sep-19 19:24N 19°13' W 096°08'0 0.0
2017-Sep-19 19:00N 19°13' W 096°08'0 0.0
2017-Sep-19 18:30N 19°13' W 096°08'0 0.0
2017-Sep-19 17:49N 19°13' W 096°08'0 0.0
2017-Sep-19 17:31N 19°13' W 096°08'0 0.0
2017-Sep-19 16:54N 19°13' W 096°08'0 0.0
2017-Sep-19 16:30N 19°13' W 096°08'0 0.0
2017-Sep-19 16:01N 19°13' W 096°08'0 0.0
2017-Sep-19 15:31N 19°13' W 096°08'0 0.0
2017-Sep-19 15:00N 19°13' W 096°08'0 0.0
2017-Sep-19 14:31N 19°13' W 096°08'0 0.0
2017-Sep-19 13:52N 19°13' W 096°08'0 0.0
2017-Sep-19 13:24N 19°13' W 096°08'0 0.1
2017-Sep-19 13:01N 19°13' W 096°08'0 0.0
2017-Sep-19 12:30N 19°13' W 096°08'0 0.0
2017-Sep-19 12:01N 19°13' W 096°08'0 0.0
2017-Sep-19 11:30N 19°13' W 096°08'0 0.0
2017-Sep-19 10:55N 19°13' W 096°08'0 0.0
2017-Sep-19 10:30N 19°13' W 096°08'0 0.0
2017-Sep-19 10:00N 19°13' W 096°08'0 0.0
2017-Sep-19 09:30N 19°13' W 096°08'0 0.0
2017-Sep-19 09:01N 19°13' W 096°08'1 1.0
2017-Sep-19 08:31N 19°12' W 096°08'4 8.1
2017-Sep-19 08:00N 19°12' W 096°04'4 7.6
2017-Sep-19 07:31N 19°13' W 096°00'611.3
2017-Sep-19 07:00N 19°19' W 096°00'5 9.9
2017-Sep-19 06:30N 19°21' W 096°05'2 3.2
2017-Sep-19 06:00N 19°21' W 096°06'0 0.6
2017-Sep-19 05:30N 19°21' W 096°06'0 0.5
2017-Sep-19 05:00N 19°21' W 096°06'0 0.6
2017-Sep-19 04:30N 19°22' W 096°06'0 0.6
2017-Sep-19 04:00N 19°22' W 096°05'0 0.6
2017-Sep-19 03:30N 19°22' W 096°05'0 0.9
2017-Sep-19 03:00N 19°22' W 096°05'1 1.0
2017-Sep-19 02:28N 19°23' W 096°04'0 0.7
2017-Sep-19 02:00N 19°23' W 096°04'1 1.8
2017-Sep-19 01:30N 19°22' W 096°05'3 5.4
2017-Sep-19 01:00N 19°20' W 096°07'0 0.6
2017-Sep-19 00:30N 19°20' W 096°06'0 0.5
2017-Sep-19 00:00N 19°21' W 096°06'0 0.5
2017-Sep-18 23:30N 19°21' W 096°06'0 0.4
2017-Sep-18 23:00N 19°21' W 096°06'0 0.5
2017-Sep-18 22:30N 19°21' W 096°06'0 0.4
2017-Sep-18 22:00N 19°21' W 096°05'0 0.4
2017-Sep-18 21:30N 19°21' W 096°05'0 0.4
2017-Sep-18 21:00N 19°21' W 096°05'0 0.4
2017-Sep-18 20:30N 19°21' W 096°05'0 0.5
2017-Sep-18 20:00N 19°22' W 096°05'0 0.6
2017-Sep-18 19:30N 19°22' W 096°05'0 0.5
2017-Sep-18 19:00N 19°22' W 096°05'0 0.5
2017-Sep-18 18:30N 19°22' W 096°05'0 0.3
2017-Sep-18 18:00N 19°23' W 096°05'0 0.4
2017-Sep-18 17:30N 19°23' W 096°05'0 0.1
2017-Sep-18 17:00N 19°23' W 096°05'2 4.6
2017-Sep-18 16:30N 19°21' W 096°04'4 7.8
2017-Sep-18 16:00N 19°22' W 096°00'3 5.5
2017-Sep-18 15:30N 19°25' W 096°00'510.2
2017-Sep-18 15:00N 19°30' W 096°00'  
2017-Sep-13 11:14N 29°33' W 094°54'2 9.5
2017-Sep-13 11:00N 29°35' W 094°56'4 7.9
2017-Sep-13 10:30N 29°38' W 094°58'3 5.0
2017-Sep-13 10:00N 29°41' W 094°59'4 7.5
2017-Sep-13 09:30N 29°44' W 095°01'4 7.5
2017-Sep-13 09:00N 29°46' W 095°05'1 0.0
2017-Sep-12 15:22N 29°45' W 095°06'2 5.2
2017-Sep-12 15:00N 29°44' W 095°04'4 7.3
2017-Sep-12 14:30N 29°42' W 095°00'5 9.4
2017-Sep-12 14:00N 29°38' W 094°58'510.5
2017-Sep-12 13:30N 29°33' W 094°55'510.5
2017-Sep-12 13:00N 29°29' W 094°52'4 0.1
2017-Sep-10 21:03N 29°33' W 094°54'010.8
2017-Sep-10 21:00N 29°33' W 094°55'510.6
2017-Sep-10 20:30N 29°38' W 094°58'5 9.9
2017-Sep-10 20:00N 29°42' W 095°01'4 7.1
2017-Sep-10 19:30N 29°44' W 095°04'3 5.2
2017-Sep-10 19:00N 29°44' W 095°07'3 6.8
2017-Sep-10 18:30N 29°45' W 095°11'3 5.4
2017-Sep-10 18:00N 29°43' W 095°13'  

Dump ship's entire track history